createdAt,value
2022-08-26T00:00:52.998Z,78.15
2022-08-26T00:03:22.450Z,77.91
2022-08-26T00:05:51.400Z,78.06
2022-08-26T00:08:21.615Z,78.13
2022-08-26T00:10:49.702Z,78.54
2022-08-26T00:13:18.779Z,78.92
2022-08-26T00:15:48.590Z,79.31
2022-08-26T00:18:22.379Z,79.64
2022-08-26T00:20:51.811Z,79.64
2022-08-26T00:23:20.598Z,79.59
2022-08-26T00:25:53.576Z,79.48
2022-08-26T00:28:22.466Z,79.71
2022-08-26T00:30:52.081Z,80.13
2022-08-26T00:33:20.978Z,80.43
2022-08-26T00:35:50.003Z,80.62
2022-08-26T00:38:21.410Z,81.06
2022-08-26T00:40:55.547Z,81.23
2022-08-26T00:43:26.248Z,81.59
2022-08-26T00:45:57.241Z,82.08
2022-08-26T00:48:27.719Z,82.02
2022-08-26T00:51:14.851Z,82.26
2022-08-26T00:53:53.789Z,82.34
2022-08-26T00:56:29.100Z,82.24
2022-08-26T00:59:01.943Z,82.25
2022-08-26T01:01:33.062Z,82.08
2022-08-26T01:04:02.070Z,81.84
2022-08-26T01:06:32.057Z,81.92
2022-08-26T01:09:00.412Z,82.34
2022-08-26T01:11:28.800Z,82.19
2022-08-26T01:13:59.287Z,82.16
2022-08-26T01:16:27.669Z,81.89
2022-08-26T01:19:04.052Z,82.14
2022-08-26T01:21:44.421Z,82.06
2022-08-26T01:24:13.956Z,82.19
2022-08-26T01:26:45.111Z,82.15
2022-08-26T01:29:21.570Z,83.27
2022-08-26T01:31:57.910Z,85.75
2022-08-26T01:34:30.610Z,86.15
2022-08-26T01:37:19.950Z,86.42
2022-08-26T01:39:52.513Z,86.76
2022-08-26T01:42:23.964Z,86.97
2022-08-26T01:45:15.089Z,86.99
2022-08-26T01:47:43.775Z,87.12
2022-08-26T01:50:30.990Z,87.16
2022-08-26T01:53:06.192Z,87.32
2022-08-26T01:55:35.897Z,87.08
2022-08-26T01:58:10.268Z,86.81
2022-08-26T02:00:40.613Z,86.91
2022-08-26T02:03:19.511Z,86.77
2022-08-26T02:06:02.425Z,86.97
2022-08-26T02:08:47.001Z,87.40
2022-08-26T02:11:18.279Z,87.60
2022-08-26T02:13:51.522Z,87.74
2022-08-26T02:16:22.951Z,88.00
2022-08-26T02:18:53.813Z,88.22
2022-08-26T02:21:22.200Z,88.36
2022-08-26T02:23:56.010Z,88.48
2022-08-26T02:26:27.043Z,88.46
2022-08-26T02:28:55.513Z,88.69
2022-08-26T02:31:24.561Z,88.86
2022-08-26T02:33:53.219Z,89.07
2022-08-26T02:36:24.151Z,89.49
2022-08-26T02:38:57.626Z,89.67
2022-08-26T02:41:25.805Z,89.83
2022-08-26T02:43:53.770Z,89.70
2022-08-26T02:46:29.865Z,89.82
2022-08-26T02:48:58.917Z,89.85
2022-08-26T02:51:28.130Z,89.85
2022-08-26T02:53:57.237Z,89.64
2022-08-26T02:56:25.282Z,89.81
2022-08-26T02:58:53.461Z,89.73
2022-08-26T03:01:25.320Z,89.90
2022-08-26T03:03:54.845Z,89.97
2022-08-26T03:06:22.793Z,90.09
2022-08-26T03:08:52.255Z,90.40
2022-08-26T03:11:20.617Z,90.47
2022-08-26T03:13:51.768Z,90.63
2022-08-26T03:16:20.914Z,90.91
2022-08-26T03:18:52.293Z,91.12
2022-08-26T03:21:21.361Z,91.47
2022-08-26T03:23:50.038Z,91.68
2022-08-26T03:26:18.110Z,91.72
2022-08-26T03:29:04.818Z,91.84
2022-08-26T03:31:33.191Z,92.26
2022-08-26T03:34:01.370Z,92.34
2022-08-26T03:36:29.542Z,92.31
2022-08-26T03:38:58.845Z,92.49
2022-08-26T03:41:26.824Z,92.37
2022-08-26T03:43:57.391Z,92.51
2022-08-26T03:46:33.200Z,92.56
2022-08-26T03:49:03.438Z,92.84
2022-08-26T03:51:32.113Z,92.87
2022-08-26T03:54:03.354Z,93.01
2022-08-26T03:56:33.809Z,93.10
2022-08-26T03:59:05.059Z,93.07
2022-08-26T04:01:36.600Z,93.08
2022-08-26T04:04:05.404Z,92.99
2022-08-26T04:06:38.352Z,93.03
2022-08-26T04:09:11.715Z,92.93
2022-08-26T04:11:42.673Z,92.53
2022-08-26T04:14:17.692Z,92.51
2022-08-26T04:16:49.510Z,92.30
2022-08-26T04:19:18.874Z,92.25
2022-08-26T04:21:51.374Z,92.09
2022-08-26T04:24:22.468Z,92.11
2022-08-26T04:26:50.864Z,91.60
2022-08-26T04:29:24.290Z,91.64
2022-08-26T04:31:55.865Z,91.67
2022-08-26T04:34:28.591Z,91.28
2022-08-26T04:36:58.111Z,91.14
2022-08-26T04:39:27.986Z,90.72
2022-08-26T04:41:57.681Z,90.45
2022-08-26T04:44:29.214Z,89.69
2022-08-26T04:46:58.898Z,89.41
2022-08-26T04:49:27.886Z,89.18
2022-08-26T04:52:05.504Z,88.57
2022-08-26T04:54:33.756Z,88.17
2022-08-26T04:57:02.784Z,87.49
2022-08-26T04:59:30.754Z,87.20
2022-08-26T05:02:00.017Z,86.93
2022-08-26T05:04:28.326Z,86.06
2022-08-26T05:07:02.332Z,84.62
2022-08-26T05:09:31.090Z,83.59
2022-08-26T05:11:59.268Z,82.46
2022-08-26T05:14:28.135Z,81.24
2022-08-26T05:16:56.427Z,79.85
2022-08-26T05:19:25.715Z,77.52
2022-08-26T05:21:56.891Z,74.38
2022-08-26T05:24:25.254Z,71.65
2022-08-26T05:26:53.427Z,69.45
2022-08-26T05:29:21.334Z,66.43
2022-08-26T05:31:52.409Z,63.33
2022-08-26T05:34:21.414Z,60.91
2022-08-26T05:36:49.398Z,59.37
2022-08-26T05:39:17.962Z,57.05
2022-08-26T05:41:46.340Z,53.29
2022-08-26T05:44:16.155Z,50.29
2022-08-26T05:46:46.181Z,48.92
2022-08-26T05:49:16.533Z,48.57
2022-08-26T05:51:47.578Z,47.00
2022-08-26T05:54:21.737Z,46.39
2022-08-26T05:56:53.605Z,44.93
2022-08-26T05:59:24.469Z,43.62
2022-08-26T06:01:55.195Z,41.66
2022-08-26T06:04:27.268Z,41.58
2022-08-26T06:06:58.901Z,40.96
2022-08-26T06:09:27.890Z,39.98
2022-08-26T06:11:56.722Z,40.50
2022-08-26T06:14:26.351Z,39.48
2022-08-26T06:16:55.380Z,38.95
2022-08-26T06:19:23.627Z,39.14
2022-08-26T06:21:55.087Z,39.28
2022-08-26T06:24:42.129Z,39.30
2022-08-26T06:27:14.005Z,40.79
2022-08-26T06:29:43.348Z,41.15
2022-08-26T06:32:11.799Z,41.49
2022-08-26T06:34:39.743Z,42.30
2022-08-26T06:37:09.154Z,43.58
2022-08-26T06:39:41.087Z,43.69
2022-08-26T06:42:11.937Z,44.38
2022-08-26T06:44:40.926Z,45.25
2022-08-26T06:47:09.267Z,45.72
2022-08-26T06:49:37.612Z,45.32
2022-08-26T06:52:05.607Z,46.24
2022-08-26T06:54:33.955Z,46.91
2022-08-26T06:57:02.206Z,47.46
2022-08-26T06:59:31.551Z,47.03
2022-08-26T07:01:59.662Z,47.30
2022-08-26T07:04:28.209Z,47.94
2022-08-26T07:06:56.844Z,47.66
2022-08-26T07:09:32.845Z,47.58
2022-08-26T07:12:02.518Z,47.62
2022-08-26T07:14:31.984Z,47.06
2022-08-26T07:17:01.186Z,46.66
2022-08-26T07:19:31.471Z,47.13
2022-08-26T07:22:04.339Z,47.19
2022-08-26T07:24:36.174Z,46.97
2022-08-26T07:27:07.078Z,46.31
2022-08-26T07:29:39.243Z,45.57
2022-08-26T07:32:09.947Z,45.54
2022-08-26T07:34:39.210Z,45.88
2022-08-26T07:37:09.814Z,45.89
2022-08-26T07:39:38.211Z,45.06
2022-08-26T07:42:13.455Z,44.55
2022-08-26T07:44:43.233Z,44.01
2022-08-26T07:47:25.522Z,43.83
2022-08-26T07:49:57.742Z,42.90
2022-08-26T07:52:28.999Z,42.67
2022-08-26T07:54:59.346Z,42.85
2022-08-26T07:57:29.051Z,42.50
2022-08-26T07:59:57.816Z,42.04
2022-08-26T08:02:28.665Z,41.39
2022-08-26T08:04:58.252Z,40.78
2022-08-26T08:07:44.240Z,40.34
2022-08-26T08:10:18.699Z,39.50
2022-08-26T08:12:50.414Z,39.60
2022-08-26T08:15:21.457Z,39.62
2022-08-26T08:17:50.724Z,39.00
2022-08-26T08:20:21.180Z,38.38
2022-08-26T08:22:52.259Z,37.74
2022-08-26T08:25:23.000Z,37.41
2022-08-26T08:27:50.960Z,36.84
2022-08-26T08:30:22.995Z,36.60
2022-08-26T08:32:52.634Z,36.81
2022-08-26T08:35:23.287Z,36.35
2022-08-26T08:37:54.435Z,35.92
2022-08-26T08:40:26.069Z,35.39
2022-08-26T08:43:06.668Z,34.69
2022-08-26T08:46:00.924Z,33.97
2022-08-26T08:48:37.286Z,35.37
2022-08-26T08:51:43.680Z,34.70
2022-08-26T08:54:12.719Z,34.05
2022-08-26T08:56:49.446Z,33.52
2022-08-26T08:59:17.373Z,32.23
2022-08-26T09:02:12.833Z,30.84
2022-08-26T09:05:08.208Z,30.10
2022-08-26T09:07:40.138Z,29.24
2022-08-26T09:10:25.608Z,29.86
2022-08-26T09:12:53.669Z,29.05
2022-08-26T09:15:40.709Z,28.31
2022-08-26T09:18:15.835Z,29.76
2022-08-26T09:20:55.841Z,29.75
2022-08-26T09:23:25.343Z,29.51
2022-08-26T09:26:00.444Z,28.29
2022-08-26T09:28:30.930Z,30.56
2022-08-26T09:31:21.792Z,29.41
2022-08-26T09:34:17.365Z,28.28
2022-08-26T09:36:50.316Z,26.75
2022-08-26T09:39:24.064Z,26.17
2022-08-26T09:42:14.161Z,26.48
2022-08-26T09:45:00.691Z,26.97
2022-08-26T09:47:33.311Z,27.29
2022-08-26T09:50:28.823Z,27.78
2022-08-26T09:53:09.879Z,25.98
2022-08-26T09:55:46.995Z,25.56
2022-08-26T09:58:37.815Z,25.09
2022-08-26T10:01:09.250Z,24.04
2022-08-26T10:03:39.764Z,24.73
2022-08-26T10:06:23.249Z,23.77
2022-08-26T10:08:55.785Z,23.09
2022-08-26T10:11:42.865Z,23.01
2022-08-26T10:14:16.060Z,22.43
2022-08-26T10:17:02.636Z,22.42
2022-08-26T10:19:57.829Z,21.75
2022-08-26T10:22:54.348Z,22.84
2022-08-26T10:25:28.546Z,23.34
2022-08-26T10:28:18.281Z,23.79
2022-08-26T10:30:56.837Z,24.45
2022-08-26T10:33:25.344Z,24.07
2022-08-26T10:35:57.282Z,24.07
2022-08-26T10:38:32.361Z,23.96
2022-08-26T10:41:10.653Z,23.59
2022-08-26T10:43:52.256Z,23.43
2022-08-26T10:46:27.097Z,22.64
2022-08-26T10:49:06.845Z,22.29
2022-08-26T10:51:42.357Z,23.73
2022-08-26T10:54:39.705Z,23.18
2022-08-26T10:57:35.248Z,22.82
2022-08-26T11:00:32.691Z,22.38
2022-08-26T11:03:22.388Z,22.62
2022-08-26T11:06:21.569Z,22.23
2022-08-26T11:08:53.506Z,22.10
2022-08-26T11:11:39.630Z,21.33
2022-08-26T11:14:29.105Z,22.22
2022-08-26T11:16:59.933Z,22.89
2022-08-26T11:19:45.637Z,22.36
2022-08-26T11:22:47.688Z,22.42
2022-08-26T11:25:20.847Z,21.95
2022-08-26T11:27:48.709Z,22.24
2022-08-26T11:30:18.395Z,21.86
2022-08-26T11:32:52.011Z,22.84
2022-08-26T11:35:20.043Z,22.76
2022-08-26T11:37:51.173Z,22.94
2022-08-26T11:40:38.601Z,22.57
2022-08-26T11:43:13.385Z,23.00
2022-08-26T11:45:45.050Z,23.08
2022-08-26T11:48:19.042Z,23.21
2022-08-26T11:51:01.910Z,21.76
2022-08-26T11:53:34.385Z,21.51
2022-08-26T11:56:06.874Z,22.25
2022-08-26T11:58:35.908Z,23.00
2022-08-26T12:01:22.221Z,22.60
2022-08-26T12:03:52.672Z,23.50
2022-08-26T12:09:02.645Z,23.74
2022-08-26T12:11:36.450Z,23.34
2022-08-26T12:14:17.635Z,22.71
2022-08-26T12:16:45.839Z,22.38
2022-08-26T12:19:27.456Z,21.24
2022-08-26T12:22:08.152Z,21.14
2022-08-26T12:24:36.378Z,21.88
2022-08-26T12:27:18.054Z,21.94
2022-08-26T12:30:14.443Z,22.32
2022-08-26T12:33:03.412Z,22.30
2022-08-26T12:35:54.375Z,21.51
2022-08-26T12:38:27.719Z,21.37
2022-08-26T12:40:57.209Z,21.10
2022-08-26T12:43:40.198Z,21.00
2022-08-26T12:46:12.860Z,20.49
2022-08-26T12:48:45.052Z,20.27
2022-08-26T12:51:24.887Z,20.06
2022-08-26T12:53:54.375Z,19.33
2022-08-26T12:56:39.123Z,18.72
2022-08-26T12:59:26.222Z,18.91
2022-08-26T13:01:54.719Z,18.78
2022-08-26T13:04:42.432Z,20.07
2022-08-26T13:07:25.712Z,19.67
2022-08-26T13:09:56.810Z,19.61
2022-08-26T13:12:50.904Z,19.29
2022-08-26T13:15:18.898Z,19.06
2022-08-26T13:17:46.855Z,19.31
2022-08-26T13:20:14.807Z,20.61
2022-08-26T13:22:43.849Z,20.44
2022-08-26T13:25:11.989Z,21.14
2022-08-26T13:27:40.687Z,20.97
2022-08-26T13:30:10.817Z,21.78
2022-08-26T13:32:41.365Z,21.87
2022-08-26T13:35:11.290Z,22.07
2022-08-26T13:37:39.303Z,23.13
2022-08-26T13:40:10.329Z,24.78
2022-08-26T13:42:49.418Z,25.67
2022-08-26T13:45:18.497Z,26.84
2022-08-26T13:47:46.637Z,27.67
2022-08-26T13:50:14.826Z,26.35
2022-08-26T13:52:42.876Z,25.65
2022-08-26T13:55:11.277Z,24.48
2022-08-26T13:57:39.276Z,23.69
2022-08-26T14:00:11.055Z,22.76
2022-08-26T14:02:39.349Z,21.85
2022-08-26T14:05:08.379Z,22.14
2022-08-26T14:07:37.033Z,21.61
2022-08-26T14:10:05.366Z,21.81
2022-08-26T14:12:33.444Z,23.72
2022-08-26T14:15:01.447Z,23.62
2022-08-26T14:17:30.786Z,23.85
2022-08-26T14:19:59.036Z,23.30
2022-08-26T14:22:27.037Z,23.63
2022-08-26T14:24:55.117Z,24.20
2022-08-26T14:27:23.177Z,23.81
2022-08-26T14:29:52.345Z,23.57
2022-08-26T14:32:29.159Z,23.94
2022-08-26T14:34:57.238Z,23.30
2022-08-26T14:37:25.903Z,22.08
2022-08-26T14:39:55.165Z,21.54
2022-08-26T14:42:31.550Z,21.55
2022-08-26T14:45:03.302Z,21.02
2022-08-26T14:47:31.975Z,20.69
2022-08-26T14:50:00.817Z,19.25
2022-08-26T14:52:30.168Z,19.19
2022-08-26T14:54:58.286Z,20.07
2022-08-26T14:57:26.287Z,19.42
2022-08-26T14:59:54.316Z,19.49
2022-08-26T15:05:16.813Z,18.69
2022-08-26T15:07:44.861Z,19.36
2022-08-26T15:10:15.180Z,18.78
2022-08-26T15:12:43.226Z,18.18
2022-08-26T15:15:13.593Z,18.08
2022-08-26T15:17:41.689Z,18.30
2022-08-26T15:20:11.352Z,18.36
2022-08-26T15:22:42.639Z,19.26
2022-08-26T15:25:12.527Z,20.47
2022-08-26T15:27:40.847Z,20.50
2022-08-26T15:30:12.550Z,20.43
2022-08-26T15:32:40.756Z,20.58
2022-08-26T15:35:09.530Z,21.05
2022-08-26T15:37:39.140Z,21.75
2022-08-26T15:40:09.740Z,22.99
2022-08-26T15:42:37.947Z,22.00
2022-08-26T15:45:06.345Z,20.86
2022-08-26T15:47:44.427Z,20.26
2022-08-26T15:50:25.444Z,19.85
2022-08-26T15:52:53.412Z,19.87
2022-08-26T15:55:24.183Z,19.59
2022-08-26T15:57:52.149Z,20.58
2022-08-26T16:00:20.893Z,20.55
2022-08-26T16:02:48.943Z,21.50
2022-08-26T16:05:18.065Z,22.20
2022-08-26T16:07:46.233Z,22.30
2022-08-26T16:10:14.477Z,22.11
2022-08-26T16:12:42.462Z,22.06
2022-08-26T16:15:11.144Z,22.93
2022-08-26T16:17:40.825Z,23.20
2022-08-26T16:20:09.703Z,23.85
2022-08-26T16:22:37.671Z,24.06
2022-08-26T16:25:07.598Z,24.26
2022-08-26T16:27:35.653Z,24.50
2022-08-26T16:30:07.092Z,24.17
2022-08-26T16:32:35.045Z,24.13
2022-08-26T16:35:02.898Z,24.02
2022-08-26T16:37:30.925Z,24.36
2022-08-26T16:39:58.919Z,24.69
2022-08-26T16:42:26.981Z,25.66
2022-08-26T16:44:55.346Z,27.49
2022-08-26T16:47:23.427Z,29.02
2022-08-26T16:49:51.701Z,30.12
2022-08-26T16:52:20.072Z,31.23
2022-08-26T16:54:49.444Z,31.89
2022-08-26T16:57:17.657Z,32.63
2022-08-26T16:59:46.300Z,33.64
2022-08-26T17:02:14.370Z,34.61
2022-08-26T17:04:46.156Z,36.33
2022-08-26T17:07:15.518Z,36.99
2022-08-26T17:09:43.763Z,37.77
2022-08-26T17:12:12.232Z,38.68
2022-08-26T17:14:40.405Z,39.14
2022-08-26T17:17:08.436Z,39.22
2022-08-26T17:19:40.769Z,39.84
2022-08-26T17:22:10.012Z,40.30
2022-08-26T17:24:39.035Z,40.61
2022-08-26T17:27:07.050Z,40.88
2022-08-26T17:29:35.235Z,41.21
2022-08-26T17:32:03.536Z,41.94
2022-08-26T17:34:31.580Z,42.38
2022-08-26T17:36:59.715Z,43.20
2022-08-26T17:39:27.795Z,44.03
2022-08-26T17:41:55.846Z,44.56
2022-08-26T17:44:24.588Z,45.08
2022-08-26T17:46:53.208Z,45.51
2022-08-26T17:49:21.115Z,45.58
2022-08-26T17:51:49.360Z,45.65
2022-08-26T17:54:17.515Z,45.89
2022-08-26T17:56:49.385Z,46.36
2022-08-26T17:59:30.479Z,46.74
2022-08-26T18:02:00.299Z,47.71
2022-08-26T18:04:31.946Z,48.38
2022-08-26T18:06:59.975Z,48.61
2022-08-26T18:09:31.628Z,49.09
2022-08-26T18:12:00.431Z,49.84
2022-08-26T18:14:28.325Z,50.11
2022-08-26T18:16:56.391Z,50.21
2022-08-26T18:19:24.355Z,50.55
2022-08-26T18:21:53.150Z,50.67
2022-08-26T18:24:21.005Z,51.05
2022-08-26T18:26:49.868Z,51.21
2022-08-26T18:29:20.038Z,51.35
2022-08-26T18:31:48.875Z,51.63
2022-08-26T18:34:17.139Z,51.38
2022-08-26T18:36:46.218Z,51.57
2022-08-26T18:39:15.540Z,51.35
2022-08-26T18:41:49.594Z,51.11
2022-08-26T18:44:20.378Z,51.12
2022-08-26T18:46:48.345Z,51.52
2022-08-26T18:49:18.556Z,52.15
2022-08-26T18:51:47.835Z,52.10
2022-08-26T18:54:15.874Z,52.45
2022-08-26T18:56:44.635Z,52.45
2022-08-26T18:59:15.056Z,52.82
2022-08-26T19:01:43.621Z,52.17
2022-08-26T19:04:15.614Z,52.88
2022-08-26T19:06:47.710Z,53.26
2022-08-26T19:09:17.909Z,53.18
2022-08-26T19:11:48.847Z,53.69
2022-08-26T19:14:18.936Z,54.27
2022-08-26T19:16:49.754Z,54.52
2022-08-26T19:19:18.455Z,54.81
2022-08-26T19:21:48.619Z,55.28
2022-08-26T19:24:19.125Z,55.68
2022-08-26T19:26:51.394Z,55.89
2022-08-26T19:29:28.573Z,56.07
2022-08-26T19:31:56.902Z,56.26
2022-08-26T19:34:24.972Z,56.13
2022-08-26T19:36:54.331Z,56.26
2022-08-26T19:39:22.487Z,56.45
2022-08-26T19:41:50.464Z,56.34
2022-08-26T19:44:40.461Z,56.53
2022-08-26T19:47:11.139Z,56.11
2022-08-26T19:49:39.433Z,56.83
2022-08-26T19:52:07.691Z,57.51
2022-08-26T19:54:36.394Z,57.72
2022-08-26T19:57:05.525Z,57.90
2022-08-26T19:59:34.053Z,58.01
2022-08-26T20:02:07.138Z,57.78
2022-08-26T20:04:39.170Z,57.19
2022-08-26T20:07:07.789Z,57.07
2022-08-26T20:09:36.324Z,57.46
2022-08-26T20:12:06.193Z,57.94
2022-08-26T20:14:35.396Z,57.76
2022-08-26T20:17:06.322Z,57.37
2022-08-26T20:19:53.375Z,57.74
2022-08-26T20:22:22.373Z,57.21
2022-08-26T20:24:50.664Z,57.01
2022-08-26T20:27:18.912Z,57.01
2022-08-26T20:29:47.069Z,57.16
2022-08-26T20:32:15.385Z,57.61
2022-08-26T20:34:43.640Z,57.23
2022-08-26T20:37:12.623Z,56.91
2022-08-26T20:39:41.745Z,56.68
2022-08-26T20:42:20.490Z,56.72
2022-08-26T20:44:54.160Z,57.55
2022-08-26T20:47:23.469Z,58.11
2022-08-26T20:49:52.345Z,57.65
2022-08-26T20:52:23.902Z,58.23
2022-08-26T20:54:52.066Z,58.42
2022-08-26T20:57:22.604Z,58.20
2022-08-26T20:59:50.775Z,57.96
2022-08-26T21:02:19.045Z,57.94
2022-08-26T21:04:50.000Z,58.21
2022-08-26T21:07:21.105Z,58.04
2022-08-26T21:09:52.586Z,57.63
2022-08-26T21:12:20.578Z,57.27
2022-08-26T21:14:49.750Z,57.12
2022-08-26T21:17:18.736Z,57.15
2022-08-26T21:19:46.799Z,57.07
2022-08-26T21:22:14.905Z,57.17
2022-08-26T21:24:43.032Z,57.12
2022-08-26T21:27:11.235Z,57.54
2022-08-26T21:29:39.313Z,57.61
2022-08-26T21:32:07.389Z,57.67
2022-08-26T21:34:35.652Z,57.67
2022-08-26T21:37:06.006Z,57.94
2022-08-26T21:39:43.406Z,58.47
2022-08-26T21:42:11.505Z,59.20
2022-08-26T21:44:39.435Z,59.75
2022-08-26T21:47:07.421Z,59.27
2022-08-26T21:49:35.777Z,59.37
2022-08-26T21:52:04.916Z,59.73
2022-08-26T21:54:33.032Z,60.29
2022-08-26T21:57:02.217Z,60.01
2022-08-26T21:59:30.332Z,60.44
2022-08-26T22:01:58.950Z,60.25
2022-08-26T22:04:28.625Z,59.60
2022-08-26T22:07:00.240Z,59.95
2022-08-26T22:09:33.620Z,60.26
2022-08-26T22:12:01.890Z,60.23
2022-08-26T22:14:31.037Z,60.75
2022-08-26T22:17:00.425Z,60.70
2022-08-26T22:19:30.109Z,60.79
2022-08-26T22:21:58.572Z,60.90
2022-08-26T22:24:27.579Z,61.63
2022-08-26T22:26:56.226Z,61.72
2022-08-26T22:29:25.458Z,62.20
2022-08-26T22:31:53.879Z,62.22
2022-08-26T22:34:23.437Z,62.25
2022-08-26T22:36:51.592Z,62.40
2022-08-26T22:39:23.957Z,62.74
2022-08-26T22:41:53.502Z,62.76
2022-08-26T22:44:22.470Z,62.86
2022-08-26T22:46:54.463Z,62.98
2022-08-26T22:49:24.016Z,63.58
2022-08-26T22:51:52.001Z,63.94
2022-08-26T22:54:20.305Z,64.38
2022-08-26T22:56:48.912Z,64.93
2022-08-26T22:59:16.984Z,65.39
2022-08-26T23:01:47.659Z,65.64
2022-08-26T23:04:15.770Z,66.14
2022-08-26T23:06:47.617Z,66.65
2022-08-26T23:09:18.672Z,66.90
2022-08-26T23:11:48.744Z,67.36
2022-08-26T23:14:18.834Z,67.82
2022-08-26T23:16:47.880Z,68.59
2022-08-26T23:19:22.069Z,68.83
2022-08-26T23:21:50.820Z,69.19
2022-08-26T23:24:19.337Z,69.46
2022-08-26T23:26:47.298Z,69.67
2022-08-26T23:29:16.160Z,69.91
2022-08-26T23:31:44.784Z,70.21
2022-08-26T23:34:32.510Z,70.32
2022-08-26T23:37:01.124Z,70.56
2022-08-26T23:39:31.394Z,70.98
2022-08-26T23:42:01.945Z,71.17
2022-08-26T23:44:31.129Z,71.25
2022-08-26T23:46:59.789Z,71.60
2022-08-26T23:49:28.052Z,72.03
2022-08-26T23:52:14.765Z,72.78
2022-08-26T23:54:43.066Z,73.15
2022-08-26T23:57:11.713Z,73.46
2022-08-26T23:59:39.989Z,73.85
